Time;durP1;ratioP1;P1;durP2;ratioP2;P2;SDS_P1;SDS_P2;PMS_P1;PMS_P2;Temp;Humidity;BMP_temperature;BMP_pressure;BME280_temperature;BME280_humidity;BME280_pressure;Samples;Min_cycle;Max_cycle;Signal;HPM_P1;HPM_P2
2021/08/13 00:01:47;;;;;;;8.32;6.45;;;21.40;81.20;;;;;;5010881;28;20028;-67
2021/08/13 00:04:14;;;;;;;12.32;6.35;;;21.40;81.30;;;;;;5011042;28;20018;-68
2021/08/13 00:06:41;;;;;;;10.82;6.63;;;21.40;81.30;;;;;;5009751;28;20026;-68
2021/08/13 00:09:10;;;;;;;11.50;6.90;;;21.40;81.50;;;;;;5011010;28;20021;-68
2021/08/13 00:11:38;;;;;;;10.27;6.70;;;21.40;81.70;;;;;;5010609;28;20159;-68
2021/08/13 00:14:06;;;;;;;11.40;6.93;;;21.40;81.70;;;;;;4997778;28;20084;-68
2021/08/13 00:16:32;;;;;;;10.18;7.13;;;21.40;81.90;;;;;;5000324;28;20037;-67
2021/08/13 00:18:58;;;;;;;10.43;7.28;;;21.40;81.80;;;;;;4998908;28;20022;-68
2021/08/13 00:21:23;;;;;;;9.23;6.68;;;21.30;81.80;;;;;;5030537;28;20052;-67
2021/08/13 00:23:49;;;;;;;11.75;7.10;;;21.30;82.00;;;;;;5029517;28;20029;-68
2021/08/13 00:26:15;;;;;;;8.65;6.78;;;21.30;82.10;;;;;;5029490;28;20098;-68
2021/08/13 00:28:40;;;;;;;9.45;6.53;;;21.20;82.10;;;;;;5029963;28;20041;-68
2021/08/13 00:31:06;;;;;;;10.25;6.03;;;21.20;82.30;;;;;;5017958;28;20034;-68
2021/08/13 00:33:32;;;;;;;10.38;6.45;;;21.20;82.50;;;;;;5009759;28;20033;-68
2021/08/13 00:35:57;;;;;;;8.90;6.35;;;21.20;82.70;;;;;;5009521;28;20037;-68
2021/08/13 00:38:23;;;;;;;10.95;6.30;;;21.20;82.70;;;;;;5010359;28;20117;-68
2021/08/13 00:40:48;;;;;;;10.07;6.60;;;21.20;82.80;;;;;;5010381;28;20368;-68
2021/08/13 00:43:14;;;;;;;8.98;6.20;;;21.20;82.80;;;;;;5010564;28;20407;-68
2021/08/13 00:45:40;;;;;;;13.63;6.40;;;21.20;82.90;;;;;;5009281;28;20045;-67
2021/08/13 00:48:06;;;;;;;10.98;6.40;;;21.20;82.90;;;;;;5009445;28;20026;-68
2021/08/13 00:50:32;;;;;;;7.97;5.63;;;21.20;82.80;;;;;;5010188;28;20030;-68
2021/08/13 00:52:59;;;;;;;9.15;6.45;;;21.10;82.80;;;;;;4992780;28;20049;-68
2021/08/13 00:55:25;;;;;;;8.80;5.95;;;21.10;82.90;;;;;;5009486;28;20018;-68
2021/08/13 00:57:51;;;;;;;9.75;6.47;;;21.10;82.90;;;;;;5010139;28;20033;-67
2021/08/13 01:00:17;;;;;;;10.05;6.65;;;21.10;82.90;;;;;;5010704;28;20394;-67
2021/08/13 01:02:43;;;;;;;9.35;6.07;;;21.00;83.00;;;;;;5010147;28;20032;-67
2021/08/13 01:05:09;;;;;;;8.57;6.00;;;21.00;83.10;;;;;;5009256;28;20437;-67
2021/08/13 01:07:35;;;;;;;12.60;6.53;;;20.90;83.20;;;;;;5009891;28;20026;-67
2021/08/13 01:10:00;;;;;;;10.18;6.13;;;20.80;83.40;;;;;;5010172;28;20042;-67
2021/08/13 01:12:48;;;;;;;11.75;6.55;;;20.80;83.50;;;;;;5010342;28;20088;-67
2021/08/13 01:15:16;;;;;;;12.82;6.47;;;20.80;83.70;;;;;;5009007;28;20447;-68
2021/08/13 01:18:07;;;;;;;8.95;5.47;;;20.70;83.60;;;;;;5014790;28;20486;-67
2021/08/13 01:20:36;;;;;;;8.32;5.72;;;20.70;84.00;;;;;;5029679;28;20330;-67
2021/08/13 01:23:16;;;;;;;9.93;6.10;;;20.70;83.70;;;;;;5006143;28;20538;-67
2021/08/13 01:25:47;;;;;;;9.63;6.50;;;20.70;84.00;;;;;;5008877;28;20088;-67
2021/08/13 01:28:47;;;;;;;10.82;6.22;;;20.70;84.00;;;;;;5010113;28;20445;-67
2021/08/13 01:31:22;;;;;;;10.27;6.00;;;20.70;84.20;;;;;;5009503;28;20034;-67
2021/08/13 01:33:54;;;;;;;10.68;5.57;;;20.70;84.10;;;;;;5003230;28;20017;-67
2021/08/13 01:36:21;;;;;;;;;;;20.70;84.10;;;;;;5014061;28;20056;-67
2021/08/13 01:38:48;;;;;;;10.35;6.38;;;20.60;83.50;;;;;;5016371;28;19916;-67
2021/08/13 01:41:15;;;;;;;12.25;6.50;;;20.60;83.70;;;;;;5013427;28;20037;-67
2021/08/13 01:43:43;;;;;;;17.35;5.82;;;20.60;83.80;;;;;;5012077;28;20033;-67
2021/08/13 01:46:10;;;;;;;14.18;6.55;;;20.50;83.90;;;;;;5011800;28;20107;-67
2021/08/13 01:48:37;;;;;;;8.90;6.05;;;20.50;83.90;;;;;;5024522;28;20028;-67
2021/08/13 01:51:03;;;;;;;10.07;5.93;;;20.50;84.00;;;;;;5033203;28;20037;-67
2021/08/13 01:53:31;;;;;;;10.55;5.78;;;20.40;84.10;;;;;;5033154;28;20021;-67
2021/08/13 01:55:58;;;;;;;7.93;5.53;;;20.40;84.30;;;;;;5026833;28;20121;-67
2021/08/13 01:58:24;;;;;;;9.02;6.05;;;20.40;84.30;;;;;;4995451;28;20022;-67
2021/08/13 02:00:51;;;;;;;10.80;6.30;;;20.40;84.20;;;;;;5013106;28;20030;-67
2021/08/13 02:03:17;;;;;;;11.70;6.20;;;20.30;84.20;;;;;;5013094;28;20552;-67
2021/08/13 02:05:43;;;;;;;13.43;6.65;;;20.30;84.30;;;;;;5012239;28;20069;-67
2021/08/13 02:08:10;;;;;;;10.93;6.35;;;20.30;84.40;;;;;;5012085;28;20064;-67
2021/08/13 02:10:38;;;;;;;9.02;6.38;;;20.30;84.50;;;;;;5013077;28;20037;-67
2021/08/13 02:13:05;;;;;;;12.30;6.45;;;20.30;84.60;;;;;;5013042;28;20025;-67
2021/08/13 02:18:06;;;;;;;10.18;6.32;;;20.20;84.80;;;;;;4974088;28;20054;-66
2021/08/13 02:20:35;;;;;;;13.77;7.13;;;20.20;84.70;;;;;;4973593;28;20030;-67
2021/08/13 02:23:00;;;;;;;8.57;6.68;;;20.20;84.80;;;;;;4968502;28;20122;-66
2021/08/13 02:25:26;;;;;;;9.77;6.20;;;20.10;84.90;;;;;;4972734;28;20100;-66
2021/08/13 02:27:52;;;;;;;9.00;6.10;;;20.10;85.00;;;;;;4972271;28;20027;-66
2021/08/13 02:30:17;;;;;;;11.80;6.22;;;20.10;85.10;;;;;;4955948;28;20113;-66
2021/08/13 02:32:43;;;;;;;11.27;6.30;;;20.00;85.10;;;;;;4973336;28;20051;-66
2021/08/13 02:35:09;;;;;;;8.25;6.53;;;20.00;85.20;;;;;;4972138;28;20027;-66
2021/08/13 02:37:54;;;;;;;16.65;7.15;;;20.00;85.30;;;;;;4972943;28;20034;-66
2021/08/13 02:40:32;;;;;;;13.02;6.82;;;20.00;85.60;;;;;;4973671;28;20037;-67
2021/08/13 02:43:15;;;;;;;12.98;6.55;;;19.90;85.40;;;;;;4973513;28;20701;-66
2021/08/13 02:45:45;;;;;;;11.52;7.10;;;19.80;85.60;;;;;;4971461;28;20023;-66
2021/08/13 02:48:12;;;;;;;13.50;7.40;;;19.80;85.60;;;;;;4973129;28;20038;-66
2021/08/13 02:50:40;;;;;;;8.95;7.18;;;19.70;85.80;;;;;;4973432;28;20023;-65
2021/08/13 02:53:10;;;;;;;11.98;6.95;;;19.60;85.90;;;;;;4972577;28;20031;-66
2021/08/13 02:55:51;;;;;;;10.15;6.10;;;19.50;86.00;;;;;;4972262;28;20023;-65
2021/08/13 02:58:21;;;;;;;10.35;6.47;;;19.50;86.50;;;;;;4953498;28;20046;-66
2021/08/13 03:00:50;;;;;;;11.75;6.75;;;19.50;86.50;;;;;;4953980;29;20053;-66
2021/08/13 03:03:17;;;;;;;9.18;6.63;;;19.50;86.50;;;;;;4936550;29;20181;-66
2021/08/13 03:05:48;;;;;;;15.27;7.72;;;19.60;86.50;;;;;;4952642;29;20046;-66
2021/08/13 03:08:18;;;;;;;13.27;7.30;;;19.50;86.60;;;;;;4956540;28;20675;-66
2021/08/13 03:10:44;;;;;;;11.85;6.88;;;19.50;86.50;;;;;;4972680;28;20085;-65
2021/08/13 03:13:10;;;;;;;11.55;7.07;;;19.50;87.10;;;;;;4972738;28;20023;-65
2021/08/13 03:15:36;;;;;;;11.25;7.90;;;19.50;86.70;;;;;;4971820;28;20023;-66
2021/08/13 03:18:03;;;;;;;10.20;6.60;;;19.50;86.50;;;;;;4972248;28;20027;-66
2021/08/13 03:20:29;;;;;;;13.27;7.45;;;19.40;86.80;;;;;;4972830;28;20031;-65
2021/08/13 03:22:55;;;;;;;17.52;9.45;;;19.40;87.10;;;;;;4970899;28;20031;-65
2021/08/13 03:25:22;;;;;;;11.80;7.93;;;19.40;87.10;;;;;;4971359;28;20110;-66
2021/08/13 03:27:48;;;;;;;13.55;8.73;;;19.40;87.20;;;;;;4972312;28;20038;-65
2021/08/13 03:30:14;;;;;;;12.98;8.80;;;19.40;87.40;;;;;;4972472;28;20039;-65
2021/08/13 03:32:41;;;;;;;13.95;9.85;;;19.40;87.50;;;;;;4972120;28;20522;-65
2021/08/13 03:35:08;;;;;;;16.85;9.43;;;19.40;87.60;;;;;;4971080;28;20026;-65
2021/08/13 03:37:35;;;;;;;14.23;10.50;;;19.40;87.80;;;;;;4972091;28;20130;-64
2021/08/13 03:40:02;;;;;;;14.73;9.45;;;19.40;87.80;;;;;;4972328;28;20023;-65
2021/08/13 03:42:28;;;;;;;14.38;9.65;;;19.50;87.90;;;;;;4972229;28;20093;-65
2021/08/13 03:44:53;;;;;;;14.82;10.07;;;19.40;87.80;;;;;;4970709;28;20487;-66
2021/08/13 03:47:19;;;;;;;17.45;9.77;;;19.40;87.90;;;;;;4971645;28;20062;-65
2021/08/13 03:49:44;;;;;;;13.80;9.75;;;19.40;88.10;;;;;;4972067;28;20042;-65
2021/08/13 03:52:10;;;;;;;16.02;10.63;;;19.40;88.20;;;;;;4972100;28;20027;-65
2021/08/13 03:54:36;;;;;;;17.42;11.60;;;19.40;88.30;;;;;;4971097;28;20030;-65
2021/08/13 03:57:01;;;;;;;17.10;11.65;;;19.40;88.10;;;;;;4971727;28;20101;-64
2021/08/13 03:59:27;;;;;;;17.40;12.52;;;19.30;88.10;;;;;;4954584;28;20022;-65
2021/08/13 04:01:53;;;;;;;22.10;11.90;;;19.20;88.20;;;;;;4971203;28;20042;-64
2021/08/13 04:04:18;;;;;;;15.07;11.32;;;19.10;88.30;;;;;;4971994;28;20019;-65
2021/08/13 04:06:44;;;;;;;14.15;10.95;;;19.00;88.50;;;;;;4970658;28;20045;-65
2021/08/13 04:09:09;;;;;;;14.68;10.32;;;19.00;88.80;;;;;;4971893;28;20041;-65
2021/08/13 04:11:35;;;;;;;15.93;11.05;;;19.00;89.20;;;;;;4954449;28;20031;-65
2021/08/13 04:14:01;;;;;;;18.23;11.27;;;19.00;89.40;;;;;;4954433;28;20113;-66
2021/08/13 04:16:26;;;;;;;15.45;11.52;;;19.00;89.50;;;;;;4970393;28;20086;-66
2021/08/13 04:18:52;;;;;;;16.38;10.50;;;19.00;89.30;;;;;;4970742;28;20398;-66
2021/08/13 04:21:17;;;;;;;16.50;10.02;;;19.00;89.40;;;;;;4971657;28;20031;-66
2021/08/13 04:23:43;;;;;;;16.20;9.63;;;19.00;89.40;;;;;;4969599;28;20100;-66
2021/08/13 04:26:09;;;;;;;12.60;9.68;;;19.00;89.50;;;;;;4970785;28;20034;-66
2021/08/13 04:28:34;;;;;;;15.00;9.25;;;18.90;89.50;;;;;;4971846;28;20050;-66
2021/08/13 04:31:00;;;;;;;17.70;10.18;;;18.90;89.70;;;;;;4972119;28;20031;-66
2021/08/13 04:33:25;;;;;;;16.60;9.32;;;18.90;89.80;;;;;;4971542;28;20023;-65
2021/08/13 04:35:51;;;;;;;11.88;8.93;;;18.90;90.00;;;;;;4970187;28;20019;-65
2021/08/13 04:38:17;;;;;;;10.68;9.15;;;18.90;90.10;;;;;;4971729;28;20475;-65
2021/08/13 04:40:44;;;;;;;13.60;10.32;;;19.00;90.20;;;;;;4971939;28;20436;-65
2021/08/13 04:43:10;;;;;;;17.08;10.52;;;19.00;90.30;;;;;;4971891;28;20367;-65
2021/08/13 04:45:36;;;;;;;16.65;9.70;;;19.10;90.30;;;;;;4971178;28;20116;-65
2021/08/13 04:48:02;;;;;;;13.90;9.75;;;19.10;90.30;;;;;;4971564;28;20478;-65
2021/08/13 04:50:27;;;;;;;15.00;9.35;;;19.10;90.40;;;;;;4971655;28;20072;-65
2021/08/13 04:52:53;;;;;;;11.15;8.45;;;19.20;90.50;;;;;;4971797;28;20102;-65
2021/08/13 04:55:24;;;;;;;14.27;9.30;;;19.20;90.50;;;;;;4970117;28;20027;-64
2021/08/13 04:57:51;;;;;;;12.32;8.85;;;19.20;90.50;;;;;;4971615;28;20490;-65
2021/08/13 05:00:17;;;;;;;13.88;8.98;;;19.20;90.60;;;;;;4954601;28;20034;-65
2021/08/13 05:02:43;;;;;;;11.60;8.98;;;19.20;90.70;;;;;;4971842;28;20027;-65
2021/08/13 05:05:09;;;;;;;12.35;8.30;;;19.20;90.70;;;;;;4970910;28;20031;-65
2021/08/13 05:07:35;;;;;;;14.27;8.82;;;19.20;90.70;;;;;;4954194;28;20487;-65
2021/08/13 05:10:09;;;;;;;12.25;9.25;;;19.20;90.80;;;;;;4988713;28;20031;-65
2021/08/13 05:12:36;;;;;;;12.52;9.55;;;19.20;91.00;;;;;;4975069;28;20582;-65
2021/08/13 05:15:03;;;;;;;17.08;9.70;;;19.20;90.90;;;;;;4974651;28;20023;-65
2021/08/13 05:17:28;;;;;;;15.55;11.30;;;19.20;90.90;;;;;;4974372;28;20046;-65
2021/08/13 05:19:54;;;;;;;15.23;10.50;;;19.20;91.00;;;;;;4975301;28;20022;-65
2021/08/13 05:22:20;;;;;;;13.52;10.23;;;19.20;91.40;;;;;;4973569;28;20029;-65
2021/08/13 05:24:45;;;;;;;14.55;8.88;;;19.20;91.20;;;;;;4988896;28;20034;-65
2021/08/13 05:27:11;;;;;;;11.13;8.90;;;19.30;91.20;;;;;;4988074;28;20027;-65
2021/08/13 05:29:37;;;;;;;17.88;9.85;;;19.20;91.20;;;;;;4955928;28;20114;-65
2021/08/13 05:32:02;;;;;;;15.75;9.70;;;19.20;91.20;;;;;;4957451;28;20023;-65
2021/08/13 05:34:28;;;;;;;15.93;9.85;;;19.30;91.30;;;;;;4989830;28;20030;-65
2021/08/13 05:36:54;;;;;;;19.75;9.90;;;19.30;91.40;;;;;;4974208;28;20023;-65
2021/08/13 05:39:19;;;;;;;18.35;10.13;;;19.30;91.30;;;;;;4975189;28;20019;-65
2021/08/13 05:41:45;;;;;;;13.68;9.63;;;19.20;91.30;;;;;;4975213;28;20069;-65
2021/08/13 05:44:10;;;;;;;12.52;9.35;;;19.20;91.30;;;;;;4974994;28;20387;-65
2021/08/13 05:46:36;;;;;;;12.75;9.93;;;19.20;91.50;;;;;;4973612;28;20165;-65
2021/08/13 05:49:01;;;;;;;16.30;9.73;;;19.20;91.40;;;;;;4973201;28;20058;-65
2021/08/13 05:51:27;;;;;;;19.45;10.10;;;19.20;91.40;;;;;;4955515;29;20027;-67
2021/08/13 05:53:53;;;;;;;18.80;10.25;;;19.20;91.50;;;;;;4955375;28;20364;-64
2021/08/13 05:56:19;;;;;;;13.90;11.05;;;19.20;91.50;;;;;;4954483;29;20071;-64
2021/08/13 05:58:44;;;;;;;13.40;9.45;;;19.20;91.60;;;;;;4937881;29;20027;-65
2021/08/13 06:01:10;;;;;;;15.55;9.25;;;19.20;91.60;;;;;;4938216;29;20039;-65
2021/08/13 06:03:36;;;;;;;13.55;9.68;;;19.20;91.60;;;;;;4955255;29;20027;-65
2021/08/13 06:06:01;;;;;;;14.35;9.35;;;19.30;91.90;;;;;;4955400;28;20038;-64
2021/08/13 06:08:27;;;;;;;15.82;9.02;;;19.30;91.70;;;;;;4973956;28;20031;-65
2021/08/13 06:10:52;;;;;;;11.88;9.02;;;19.30;91.60;;;;;;4974472;28;20069;-65
2021/08/13 06:13:18;;;;;;;12.65;9.15;;;19.30;91.60;;;;;;4974487;28;20585;-65
2021/08/13 06:15:45;;;;;;;14.15;9.43;;;19.30;91.70;;;;;;4970004;28;20038;-65
2021/08/13 06:18:11;;;;;;;12.45;9.82;;;19.30;91.70;;;;;;4948867;28;20030;-65
2021/08/13 06:20:37;;;;;;;15.13;9.02;;;19.40;91.80;;;;;;4972908;28;20114;-65
2021/08/13 06:23:02;;;;;;;12.95;8.70;;;19.40;91.80;;;;;;4972204;28;20018;-64
2021/08/13 06:25:28;;;;;;;12.20;8.80;;;19.50;91.80;;;;;;4973212;28;20034;-65
2021/08/13 06:27:53;;;;;;;14.82;9.70;;;19.60;91.80;;;;;;4972679;28;20141;-65
2021/08/13 06:30:22;;;;;;;18.17;9.45;;;19.60;91.90;;;;;;4972963;28;20034;-65
2021/08/13 06:32:48;;;;;;;12.13;8.95;;;19.60;91.70;;;;;;4967281;28;20483;-65
2021/08/13 06:35:14;;;;;;;12.18;9.27;;;19.60;91.80;;;;;;4973032;28;20026;-65
2021/08/13 06:37:51;;;;;;;14.85;9.00;;;19.60;91.70;;;;;;4973878;28;20061;-65
2021/08/13 06:40:17;;;;;;;16.83;9.25;;;19.60;91.80;;;;;;4974205;28;20106;-65
2021/08/13 06:42:43;;;;;;;14.63;9.30;;;19.60;91.70;;;;;;4973917;28;20526;-65
2021/08/13 06:45:11;;;;;;;10.88;9.27;;;19.50;91.70;;;;;;4972089;28;20106;-65
2021/08/13 06:47:37;;;;;;;12.35;9.38;;;19.60;91.80;;;;;;4969594;28;20027;-65
2021/08/13 06:50:04;;;;;;;14.48;9.43;;;19.60;91.90;;;;;;4973711;28;20035;-65
2021/08/13 06:52:30;;;;;;;14.38;9.65;;;19.60;91.90;;;;;;4973738;28;20019;-65
2021/08/13 06:54:55;;;;;;;13.80;9.60;;;19.70;91.80;;;;;;4958354;28;20534;-65
2021/08/13 06:57:21;;;;;;;14.50;9.68;;;19.80;91.70;;;;;;4936877;29;20159;-65
2021/08/13 06:59:47;;;;;;;13.27;9.10;;;19.80;91.60;;;;;;4954372;29;20061;-65
2021/08/13 07:02:12;;;;;;;18.45;11.95;;;19.90;91.60;;;;;;4954156;28;20463;-66
2021/08/13 07:04:38;;;;;;;18.15;11.75;;;20.00;91.60;;;;;;4970022;28;20027;-65
2021/08/13 07:07:03;;;;;;;22.23;13.13;;;20.10;91.60;;;;;;4955531;28;20479;-65
2021/08/13 07:09:29;;;;;;;22.92;12.75;;;20.20;91.50;;;;;;4973401;28;20027;-65
2021/08/13 07:11:54;;;;;;;20.15;10.73;;;20.30;91.50;;;;;;4973459;28;20038;-65
2021/08/13 07:14:20;;;;;;;15.20;9.73;;;20.40;91.40;;;;;;4973262;28;20081;-65
2021/08/13 07:16:47;;;;;;;13.27;9.25;;;20.50;91.30;;;;;;4953813;28;20383;-65
2021/08/13 07:19:12;;;;;;;13.48;8.70;;;20.70;91.20;;;;;;4973248;28;20547;-65
2021/08/13 07:21:39;;;;;;;12.95;9.10;;;20.80;91.10;;;;;;4973235;28;20109;-65
2021/08/13 07:24:04;;;;;;;13.32;8.50;;;21.00;91.00;;;;;;4970952;28;20027;-65
2021/08/13 07:26:30;;;;;;;13.02;8.80;;;21.10;90.80;;;;;;4971977;28;20073;-65
2021/08/13 07:28:56;;;;;;;15.63;8.60;;;21.50;90.60;;;;;;4972381;28;20099;-65
2021/08/13 07:31:21;;;;;;;12.63;8.63;;;21.90;90.40;;;;;;4972784;28;20027;-66
2021/08/13 07:33:47;;;;;;;10.70;8.63;;;22.20;90.10;;;;;;4972540;28;20430;-66
2021/08/13 07:36:12;;;;;;;10.73;8.05;;;22.40;89.50;;;;;;4971404;28;20057;-66
2021/08/13 07:38:41;;;;;;;10.30;7.50;;;22.30;89.60;;;;;;4958528;28;20019;-66
2021/08/13 07:41:10;;;;;;;12.40;7.55;;;22.30;89.40;;;;;;4971988;28;20031;-66
2021/08/13 07:43:37;;;;;;;15.63;7.20;;;22.50;88.90;;;;;;4971334;28;20474;-66
2021/08/13 07:46:03;;;;;;;11.02;6.63;;;22.60;88.70;;;;;;4971585;28;20018;-66
2021/08/13 07:48:29;;;;;;;9.35;6.80;;;22.50;88.60;;;;;;4970245;28;20031;-66
2021/08/13 07:50:55;;;;;;;12.10;7.65;;;23.00;87.90;;;;;;4972442;28;20113;-66
2021/08/13 07:53:20;;;;;;;11.70;6.90;;;23.60;86.40;;;;;;4972413;28;20077;-66
2021/08/13 07:55:46;;;;;;;11.18;6.72;;;24.10;84.40;;;;;;4971480;28;20382;-66
2021/08/13 07:58:11;;;;;;;10.15;7.45;;;24.50;82.70;;;;;;4971162;28;20031;-66
2021/08/13 08:00:37;;;;;;;11.75;7.20;;;24.80;81.80;;;;;;4972266;28;20077;-66
2021/08/13 08:03:03;;;;;;;8.68;6.72;;;25.00;81.00;;;;;;4971887;28;20031;-66
2021/08/13 08:05:28;;;;;;;9.20;6.90;;;25.30;80.40;;;;;;4971109;28;20030;-66
2021/08/13 08:07:54;;;;;;;11.00;7.18;;;25.40;79.40;;;;;;4971975;28;20423;-65
2021/08/13 08:10:20;;;;;;;12.07;6.65;;;25.60;78.70;;;;;;4972251;28;20408;-65
2021/08/13 08:12:46;;;;;;;11.23;6.50;;;25.90;78.00;;;;;;4991207;28;20037;-65
2021/08/13 08:15:12;;;;;;;10.95;6.65;;;26.20;78.10;;;;;;4990405;28;20026;-65
2021/08/13 08:17:38;;;;;;;10.75;6.07;;;26.50;77.80;;;;;;4984446;23;20058;-67
2021/08/13 08:20:04;;;;;;;9.48;5.80;;;26.60;76.90;;;;;;4964010;28;20538;-67
2021/08/13 08:22:30;;;;;;;9.70;5.95;;;27.00;76.10;;;;;;4971947;28;20042;-68
2021/08/13 08:24:55;;;;;;;10.18;6.93;;;27.30;75.30;;;;;;4971084;28;20034;-68
2021/08/13 08:27:21;;;;;;;10.68;6.00;;;27.40;74.40;;;;;;4953817;28;20114;-67
2021/08/13 08:29:47;;;;;;;9.73;5.90;;;27.30;75.10;;;;;;4971607;28;20030;-68
2021/08/13 08:32:12;;;;;;;7.75;6.50;;;27.50;74.60;;;;;;4971630;28;20080;-67
2021/08/13 08:34:38;;;;;;;12.32;7.18;;;27.60;73.60;;;;;;4970299;28;20055;-67
2021/08/13 08:37:05;;;;;;;12.82;7.38;;;27.60;73.20;;;;;;4971608;28;20026;-67
2021/08/13 08:39:31;;;;;;;10.73;6.43;;;27.80;72.60;;;;;;4971625;28;20027;-68
2021/08/13 08:41:58;;;;;;;10.32;6.50;;;28.10;72.70;;;;;;4971767;28;20033;-68
2021/08/13 08:44:23;;;;;;;9.98;6.20;;;28.50;71.30;;;;;;4961633;28;20480;-68
2021/08/13 08:46:49;;;;;;;10.80;6.18;;;28.80;70.30;;;;;;4956864;28;20034;-68
2021/08/13 08:49:18;;;;;;;8.55;6.30;;;29.00;70.30;;;;;;4958562;28;20023;-67
2021/08/13 08:51:45;;;;;;;8.02;5.70;;;29.20;69.50;;;;;;4975538;28;20027;-67
2021/08/13 08:54:11;;;;;;;9.00;5.53;;;29.40;69.60;;;;;;4965945;28;20050;-67
2021/08/13 08:56:38;;;;;;;7.43;5.72;;;29.70;68.20;;;;;;4955176;28;20027;-68
2021/08/13 08:59:04;;;;;;;7.05;5.25;;;29.50;67.70;;;;;;4939036;29;20062;-67
2021/08/13 09:01:29;;;;;;;7.20;5.35;;;29.50;68.20;;;;;;4956191;29;20070;-67
2021/08/13 09:03:56;;;;;;;8.20;5.50;;;29.80;68.00;;;;;;4958028;28;20079;-68
2021/08/13 09:06:22;;;;;;;6.28;5.45;;;29.80;67.70;;;;;;4974007;28;20077;-68
2021/08/13 09:08:48;;;;;;;7.13;5.40;;;29.80;66.90;;;;;;4975418;28;20054;-69
2021/08/13 09:11:14;;;;;;;8.25;5.43;;;29.90;66.30;;;;;;4975220;28;20062;-68
2021/08/13 09:13:56;;;;;;;6.93;5.50;;;30.20;66.00;;;;;;4975215;28;20035;-68
2021/08/13 09:16:22;;;;;;;6.30;5.38;;;30.20;65.40;;;;;;4958540;28;20034;-67
2021/08/13 09:19:00;;;;;;;6.35;5.20;;;30.50;64.70;;;;;;4975136;28;20151;-68
2021/08/13 09:21:26;;;;;;;7.97;5.47;;;30.60;63.70;;;;;;4974899;28;20042;-68
2021/08/13 09:23:54;;;;;;;6.75;5.40;;;30.40;64.30;;;;;;4974853;28;20471;-68
2021/08/13 09:26:22;;;;;;;9.25;5.28;;;30.30;64.50;;;;;;4973028;28;20035;-68
2021/08/13 09:28:49;;;;;;;5.05;4.63;;;30.50;64.00;;;;;;4963077;28;20023;-68
2021/08/13 09:31:24;;;;;;;6.70;5.13;;;30.70;64.30;;;;;;4971153;28;20039;-68
2021/08/13 09:33:52;;;;;;;5.47;4.50;;;31.10;64.00;;;;;;4975051;28;20438;-68
2021/08/13 09:36:23;;;;;;;15.32;5.18;;;31.40;63.60;;;;;;4974017;28;20023;-69
2021/08/13 09:39:00;;;;;;;8.02;4.70;;;31.50;62.20;;;;;;4971165;28;20019;-68
2021/08/13 09:41:26;;;;;;;7.65;4.75;;;31.50;61.90;;;;;;4973277;28;20121;-68
2021/08/13 09:43:57;;;;;;;8.45;4.22;;;31.50;62.00;;;;;;4974727;28;20110;-69
2021/08/13 09:46:24;;;;;;;8.38;4.30;;;31.40;60.70;;;;;;4973302;28;20139;-69
2021/08/13 09:48:50;;;;;;;9.18;4.07;;;31.20;60.80;;;;;;4974180;28;20023;-69
2021/08/13 09:51:34;;;;;;;5.85;4.18;;;31.10;61.20;;;;;;4974773;28;20023;-69
2021/08/13 09:54:04;;;;;;;8.45;3.75;;;31.10;60.60;;;;;;4974733;28;20494;-68
2021/08/13 09:56:32;;;;;;;6.68;4.40;;;31.10;60.90;;;;;;4973409;28;20069;-68
2021/08/13 09:59:10;;;;;;;6.38;4.10;;;31.00;61.00;;;;;;4974401;28;20102;-68
2021/08/13 10:01:54;;;;;;;9.57;4.50;;;31.10;61.20;;;;;;4973848;28;20149;-68
2021/08/13 10:04:32;;;;;;;5.45;4.13;;;31.20;61.20;;;;;;4957118;28;20034;-68
2021/08/13 10:06:58;;;;;;;5.57;4.45;;;31.40;61.30;;;;;;4973719;28;20019;-68
2021/08/13 10:09:27;;;;;;;7.68;4.60;;;31.60;61.70;;;;;;4974555;28;20033;-68
2021/08/13 10:12:00;;;;;;;10.60;4.68;;;31.60;60.60;;;;;;4974299;28;20039;-69
2021/08/13 10:14:36;;;;;;;6.80;4.25;;;31.70;60.10;;;;;;4956670;28;20027;-69
2021/08/13 10:17:20;;;;;;;7.43;4.50;;;31.70;60.20;;;;;;4973734;28;20031;-67
2021/08/13 10:19:50;;;;;;;7.20;4.95;;;31.70;59.70;;;;;;4974324;28;20018;-67
2021/08/13 10:22:18;;;;;;;8.23;5.82;;;31.80;59.50;;;;;;4973938;28;20402;-68
2021/08/13 10:24:44;;;;;;;9.73;4.15;;;31.60;59.00;;;;;;4973263;28;20053;-68
2021/08/13 10:27:12;;;;;;;6.38;4.38;;;31.30;59.80;;;;;;4973686;28;20055;-67
2021/08/13 10:29:38;;;;;;;6.90;4.10;;;31.20;59.70;;;;;;4976908;28;20098;-68
2021/08/13 10:32:04;;;;;;;5.15;4.45;;;31.20;60.50;;;;;;4993284;28;20105;-69
2021/08/13 10:34:30;;;;;;;7.82;4.20;;;31.20;60.80;;;;;;4992628;28;20168;-67
2021/08/13 10:36:56;;;;;;;6.72;4.03;;;31.40;60.80;;;;;;4992549;28;21084;-68
2021/08/13 10:39:25;;;;;;;6.65;4.30;;;31.40;60.20;;;;;;4978508;28;20114;-68
2021/08/13 10:41:55;;;;;;;7.40;4.50;;;31.40;59.70;;;;;;4973730;28;20019;-68
2021/08/13 10:44:24;;;;;;;6.03;4.20;;;31.40;59.70;;;;;;4973644;28;20146;-68
2021/08/13 10:46:52;;;;;;;6.50;3.67;;;31.50;60.10;;;;;;4972515;28;20114;-68
2021/08/13 10:49:20;;;;;;;10.73;4.15;;;31.60;59.60;;;;;;4974287;28;20035;-68
2021/08/13 10:51:59;;;;;;;6.15;3.70;;;31.60;58.60;;;;;;4993060;28;20030;-68
2021/08/13 10:54:40;;;;;;;5.95;3.75;;;31.50;58.70;;;;;;4976802;28;20372;-67
2021/08/13 10:57:08;;;;;;;9.95;4.10;;;31.40;58.70;;;;;;4973646;28;20038;-68
2021/08/13 10:59:40;;;;;;;7.55;4.00;;;31.40;58.80;;;;;;4973331;28;20467;-67
2021/08/13 11:02:16;;;;;;;8.75;4.45;;;31.30;59.00;;;;;;4972924;28;20460;-67
2021/08/13 11:04:44;;;;;;;8.10;3.65;;;31.30;59.00;;;;;;4972624;28;20339;-67
2021/08/13 11:07:10;;;;;;;8.07;4.13;;;31.30;59.70;;;;;;4971714;28;20152;-67
2021/08/13 11:09:37;;;;;;;20.15;14.43;;;31.30;59.00;;;;;;4973166;28;20074;-68
2021/08/13 11:12:08;;;;;;;6.78;4.18;;;31.30;58.90;;;;;;4972909;28;20058;-66
2021/08/13 11:14:44;;;;;;;7.28;4.28;;;31.20;58.70;;;;;;4968360;28;20098;-66
2021/08/13 11:17:31;;;;;;;8.55;3.83;;;31.20;59.60;;;;;;4963100;28;20434;-68
2021/08/13 11:20:02;;;;;;;5.68;4.07;;;31.20;60.00;;;;;;4972775;28;20113;-67
2021/08/13 11:22:30;;;;;;;11.80;4.35;;;31.20;59.80;;;;;;4955195;28;20030;-67
2021/08/13 11:24:55;;;;;;;7.22;3.83;;;31.20;59.30;;;;;;4971996;28;20094;-68
2021/08/13 11:27:21;;;;;;;10.18;4.30;;;31.30;59.20;;;;;;4972134;28;20113;-67
2021/08/13 11:29:47;;;;;;;5.85;3.90;;;31.20;59.30;;;;;;4972561;28;20086;-67
2021/08/13 11:32:17;;;;;;;9.00;4.38;;;31.20;58.90;;;;;;4971830;28;20031;-67
2021/08/13 11:35:04;;;;;;;7.22;4.13;;;31.10;58.60;;;;;;4971816;28;20034;-68
2021/08/13 11:37:37;;;;;;;8.52;3.72;;;31.00;58.90;;;;;;4972611;28;20050;-68
2021/08/13 11:40:26;;;;;;;8.95;4.10;;;31.00;59.30;;;;;;4965936;28;20388;-68
2021/08/13 11:42:53;;;;;;;9.93;5.10;;;31.00;59.10;;;;;;4972324;28;20030;-68
2021/08/13 11:45:20;;;;;;;7.63;4.10;;;31.00;59.50;;;;;;4971713;28;20038;-68
2021/08/13 11:47:53;;;;;;;7.78;4.28;;;31.00;59.10;;;;;;4971438;28;20030;-68
2021/08/13 11:50:20;;;;;;;6.72;4.40;;;31.00;59.10;;;;;;4972458;28;20037;-68
2021/08/13 11:52:50;;;;;;;7.35;4.18;;;31.10;59.20;;;;;;4972418;28;20033;-68
2021/08/13 11:55:23;;;;;;;10.75;4.60;;;31.20;58.60;;;;;;4970341;28;20431;-68
2021/08/13 11:57:50;;;;;;;4.97;3.63;;;31.20;58.60;;;;;;4972018;28;20029;-68
2021/08/13 12:00:16;;;;;;;6.88;4.18;;;31.20;59.00;;;;;;4972351;28;20398;-68
2021/08/13 12:02:42;;;;;;;7.90;4.78;;;31.30;58.60;;;;;;4972276;28;20447;-68
2021/08/13 12:05:12;;;;;;;7.72;4.22;;;31.40;58.30;;;;;;4971194;28;20106;-68
2021/08/13 12:07:38;;;;;;;7.93;4.18;;;31.40;57.90;;;;;;4971705;28;20117;-68
2021/08/13 12:10:15;;;;;;;8.63;4.32;;;31.60;58.30;;;;;;4971669;28;20118;-68
2021/08/13 12:12:42;;;;;;;6.30;4.50;;;31.70;57.80;;;;;;4952799;29;20028;-67
2021/08/13 12:15:10;;;;;;;10.32;4.75;;;31.70;58.30;;;;;;4951861;29;20023;-67
2021/08/13 12:17:35;;;;;;;8.05;4.47;;;31.90;58.40;;;;;;4965586;28;20027;-68
2021/08/13 12:20:05;;;;;;;6.13;4.38;;;31.90;58.50;;;;;;4972036;28;20129;-68
2021/08/13 12:22:32;;;;;;;8.10;4.38;;;32.00;57.80;;;;;;4971939;28;20031;-68
2021/08/13 12:24:58;;;;;;;8.52;4.32;;;32.00;57.70;;;;;;4970578;28;20027;-67
2021/08/13 12:27:28;;;;;;;8.27;4.30;;;32.00;57.20;;;;;;4953911;28;20113;-68
2021/08/13 12:29:54;;;;;;;7.05;4.07;;;32.00;57.60;;;;;;4971583;28;20026;-68
2021/08/13 12:32:20;;;;;;;10.38;4.70;;;32.10;58.20;;;;;;4971603;28;20126;-68
2021/08/13 12:34:52;;;;;;;9.48;4.80;;;32.30;58.00;;;;;;4971012;28;20026;-67
2021/08/13 12:37:21;;;;;;;11.77;5.55;;;32.50;57.60;;;;;;4971585;28;20522;-67
2021/08/13 12:39:49;;;;;;;9.60;5.47;;;32.50;56.80;;;;;;4964656;28;20025;-68
2021/08/13 12:42:16;;;;;;;9.60;4.78;;;32.40;56.60;;;;;;4971815;28;20057;-68
2021/08/13 12:44:44;;;;;;;6.38;4.93;;;32.30;56.60;;;;;;4970596;28;20031;-67
2021/08/13 12:47:11;;;;;;;11.55;5.43;;;32.10;57.00;;;;;;4971470;28;20118;-66